Monday, July 6, 2015, 11:56 AM EDT

KSHD, Staunton / Shenandoah

Location: Weyers Cave, VA, United States Lat: 38.267
Local Time: 11:56 AM EDT (15:56 GMT) Lon: -78.9
Time Zone: US/Eastern Elev: 1200 ft

Show me the last for .
Show Decoded

2015-07-06 11:35 METAR KSHD 061535Z AUTO 15008KT 10SM SCT021 SCT050 BKN085 27/21 A3013 RMK AO2
                 T02670208 =
2015-07-06 11:15 METAR KSHD 061515Z AUTO 17007KT 10SM SCT021 SCT050 BKN075 26/20 A3014 RMK AO2
                 T02580203 =
2015-07-06 10:55 METAR KSHD 061455Z AUTO 17006KT 10SM OVC075 25/21 A3013 RMK AO2 T02520208 =
2015-07-06 10:35 METAR KSHD 061435Z AUTO 17006KT 10SM SCT018 SCT029 OVC070 25/21 A3014 RMK AO2
                 T02490205 =
2015-07-06 10:15 METAR KSHD 061415Z AUTO 17004KT 10SM BKN020 BKN030 OVC060 25/21 A3014 RMK AO2
                 T02500208 =
2015-07-06 09:35 METAR KSHD 061335Z AUTO 16005KT 10SM SCT015 BKN021 OVC060 25/21 A3015 RMK AO2
                 T02480211 =
2015-07-06 09:15 METAR KSHD 061315Z AUTO 15004KT 10SM SCT015 OVC021 24/21 A3015 RMK AO2 T02370213
                 =
2015-07-06 08:55 METAR KSHD 061255Z AUTO 16003KT 10SM SCT009 SCT015 OVC021 23/21 A3015 RMK AO2
                 T02330212 =
2015-07-06 08:15 METAR KSHD 061215Z AUTO 00000KT 10SM BKN015 OVC026 23/21 A3015 RMK AO2 T02280212
                 =
2015-07-06 07:55 METAR KSHD 061155Z AUTO 15003KT 7SM BKN013 OVC020 23/21 A3016 RMK AO2 70034
                 T02250211 10225 20216 =
2015-07-06 07:35 METAR KSHD 061135Z AUTO 00000KT 7SM OVC011 22/21 A3015 RMK AO2 T02220212 =
2015-07-06 07:15 METAR KSHD 061115Z AUTO 00000KT 7SM OVC013 22/21 A3014 RMK AO2 T02200211 =
2015-07-06 06:55 METAR KSHD 061055Z AUTO 00000KT 7SM OVC017 22/21 A3013 RMK AO2 T02200212 =
2015-07-06 06:35 METAR KSHD 061035Z AUTO 00000KT 4SM BR OVC017 22/21 A3013 RMK AO2 T02180210 =
2015-07-06 06:15 METAR KSHD 061015Z AUTO 00000KT 4SM BR OVC019 22/21 A3013 RMK AO2 T02180210 =
2015-07-06 05:55 METAR KSHD 060955Z AUTO 00000KT 4SM BR BKN021 OVC025 22/21 A3012 RMK AO2
                 T02170210 =
2015-07-06 05:35 METAR KSHD 060935Z AUTO 00000KT 3SM BR SCT003 BKN025 OVC080 22/21 A3012 RMK AO2
                 T02170210 =
2015-07-06 05:15 METAR KSHD 060915Z AUTO 00000KT 3SM BR SCT003 OVC018 22/21 A3011 RMK AO2
                 T02190210 =
2015-07-06 04:35 METAR KSHD 060835Z AUTO 00000KT 2SM BR SCT002 BKN020 OVC030 22/21 A3012 RMK AO2
                 T02200211 =
2015-07-06 04:15 METAR KSHD 060815Z AUTO 00000KT 2SM BR OVC028 22/21 A3012 RMK AO2 T02200211 =
2015-07-06 03:55 METAR KSHD 060755Z AUTO 00000KT 2SM BR SCT002 BKN030 OVC075 22/21 A3012 RMK AO2
                 T02200211 =
2015-07-06 03:35 METAR KSHD 060735Z AUTO 00000KT 1 1/4SM BR BKN002 OVC037 22/21 A3012 RMK AO2
                 T02200211 =
2015-07-06 03:15 METAR KSHD 060715Z AUTO 00000KT 3/4SM BR BKN002 OVC049 22/21 A3012 RMK AO2
                 T02210212 =
2015-07-06 02:55 METAR KSHD 060655Z AUTO 00000KT 1 3/4SM BR SCT002 SCT018 BKN026 22/21 A3012 RMK
                 AO2 LTG DSNT E T02210212 =
2015-07-06 02:15 METAR KSHD 060615Z AUTO 00000KT 2 1/2SM BR OVC022 23/22 A3013 RMK AO2 T02250215
                 =
2015-07-06 01:55 METAR KSHD 060555Z AUTO 00000KT 2 1/2SM BR SCT004 OVC022 23/22 A3013 RMK AO2
                 60034 T02250215 10252 20223 402770190 =
2015-07-06 01:35 METAR KSHD 060535Z AUTO 00000KT 3SM BR SCT004 BKN027 OVC120 22/21 A3013 RMK AO2
                 T02230213 =
2015-07-06 01:15 METAR KSHD 060515Z AUTO 00000KT 3SM BR BKN004 BKN022 OVC028 23/22 A3013 RMK AO2
                 LTG DSNT SE T02250215 =
2015-07-06 00:55 METAR KSHD 060455Z AUTO 00000KT 2SM BR BKN004 BKN037 OVC060 23/22 A3014 RMK AO2
                 P0002 T02250215 =
2015-07-06 00:35 METAR KSHD 060435Z AUTO 05003KT 2SM RA SCT001 BKN025 OVC044 23/22 A3014 RMK AO2
                 P0002 T02270216 =
2015-07-06 00:15 METAR KSHD 060415Z AUTO 00000KT 2 1/2SM -RA SCT017 BKN021 OVC027 23/22 A3015 RMK
                 AO2 P0001 T02270216 =
2015-07-05 23:55 METAR KSHD 060355Z AUTO 00000KT 1SM +RA OVC022 23/22 A3016 RMK AO2 LTG DSNT SE
                 P0026 T02270216 =
2015-07-05 23:35 METAR KSHD 060335Z AUTO 00000KT 2SM RA SCT023 BKN060 OVC100 23/22 A3016 RMK AO2
                 LTG DSNT NE P0005 T02270215 =
2015-07-05 23:15 METAR KSHD 060315Z AUTO 00000KT 2SM RA SCT022 SCT055 OVC070 23/22 A3016 RMK AO2
                 LTG DSNT S P0003 T02280215 =
2015-07-05 22:55 METAR KSHD 060255Z AUTO 00000KT 2SM RA SCT065 BKN070 OVC090 23/22 A3016 RMK AO2
                 P0005 60005 T02270215 =
2015-07-05 22:35 METAR KSHD 060235Z AUTO 00000KT 2 1/2SM RA SCT065 OVC090 23/21 A3016 RMK AO2 LTG
                 DSNT E P0003 T02280213 =
2015-07-05 22:15 METAR KSHD 060215Z AUTO 00000KT 5SM RA SCT065 OVC090 23/21 A3017 RMK AO2
                 T02340213 =
2015-07-05 21:55 METAR KSHD 060155Z AUTO 00000KT 5SM RA SCT070 BKN090 OVC110 23/22 A3016 RMK AO2
                 T02340215 =
2015-07-05 21:35 METAR KSHD 060135Z AUTO 00000KT 7SM OVC100 24/21 A3016 RMK AO2 LTG DSNT E
                 T02380210 =
2015-07-05 21:15 METAR KSHD 060115Z AUTO 00000KT 7SM OVC110 24/21 A3015 RMK AO2 LTG DSNT E THRU
                 SW T02400210 =
2015-07-05 20:35 METAR KSHD 060035Z AUTO 00000KT 7SM CLR 25/21 A3015 RMK AO2 T02480207 =
2015-07-05 20:15 METAR KSHD 060015Z AUTO 16003KT 10SM SCT120 25/21 A3015 RMK AO2 LTG DSNT SE
                 T02510207 =
2015-07-05 19:55 METAR KSHD 052355Z AUTO 13003KT 10SM SCT120 25/21 A3015 RMK AO2 T02520208 10277
                 20252 =
2015-07-05 19:35 METAR KSHD 052335Z AUTO 00000KT 10SM CLR 26/21 A3016 RMK AO2 T02550206 =
2015-07-05 19:15 METAR KSHD 052315Z AUTO 12003KT 10SM CLR 26/21 A3014 RMK AO2 T02570205 =
2015-07-05 18:55 METAR KSHD 052255Z AUTO 15003KT 10SM SCT026 SCT095 26/20 A3013 RMK AO2 T02610204
                 =
2015-07-05 18:35 METAR KSHD 052235Z AUTO 17003KT 10SM SCT028 SCT032 SCT095 26/20 A3013 RMK AO2
                 T02640203 =
2015-07-05 18:15 METAR KSHD 052215Z AUTO 14004KT 10SM BKN028 BKN032 27/20 A3013 RMK AO2 T02680201
                 =
2015-07-05 17:55 METAR KSHD 052155Z AUTO 11003KT 10SM BKN028 27/20 A3014 RMK AO2 LTG DSNT SE AND
                 NW T02700201 =
2015-07-05 17:35 METAR KSHD 052135Z AUTO 00000KT 10SM CLR 27/20 A3014 RMK AO2 T02710201 =
2015-07-05 17:15 METAR KSHD 052115Z AUTO 16005KT 10SM SCT025 SCT029 SCT040 27/20 A3014 RMK AO2
                 T02700198 =
2015-07-05 16:35 METAR KSHD 052035Z AUTO 11005KT 10SM BKN025 27/20 A3013 RMK AO2 T02680199 =
2015-07-05 16:15 METAR KSHD 052015Z AUTO 12004KT 10SM BKN025 27/20 A3014 RMK AO2 T02690201 =
2015-07-05 15:55 METAR KSHD 051955Z AUTO 13004KT 10SM BKN025 26/20 A3015 RMK AO2 T02640200 =
2015-07-05 15:35 METAR KSHD 051935Z AUTO 13004KT 10SM SCT026 27/20 A3016 RMK AO2 T02650199 =
2015-07-05 15:15 METAR KSHD 051915Z AUTO 13005KT 10SM SCT026 27/20 A3016 RMK AO2 T02650195 =
2015-07-05 14:55 METAR KSHD 051855Z AUTO 13005KT 10SM BKN028 BKN090 27/20 A3016 RMK AO2 LTG DSNT
                 SE T02690198 =
2015-07-05 14:35 METAR KSHD 051835Z AUTO 12007KT 10SM BKN028 27/20 A3016 RMK AO2 T02680195 =
2015-07-05 14:15 METAR KSHD 051815Z AUTO 10006KT 10SM BKN026 28/20 A3017 RMK AO2 T02770204 =
2015-07-05 13:55 METAR KSHD 051755Z AUTO 14005KT 10SM BKN026 27/20 A3017 RMK AO2 T02730202 10273
                 20203 =
2015-07-05 13:35 METAR KSHD 051735Z AUTO 12005KT 10SM BKN026 BKN032 BKN085 27/20 A3018 RMK AO2
                 T02650198 =
2015-07-05 13:15 METAR KSHD 051715Z AUTO 11006KT 10SM BKN024 BKN030 OVC085 27/20 A3018 RMK AO2
                 T02670202 =
2015-07-05 12:55 METAR KSHD 051655Z AUTO 13003KT 10SM SCT017 BKN024 OVC028 26/20 A3019 RMK AO2
                 T02570199 =
2015-07-05 12:35 METAR KSHD 051635Z AUTO 00000KT 10SM SCT018 OVC024 26/21 A3019 RMK AO2 T02610205
                 =
2015-07-05 12:15 METAR KSHD 051615Z AUTO 00000KT 10SM SCT016 BKN023 BKN029 26/20 A3019 RMK AO2
                 T02550203 =

Support USWX by starting your Amazon purchase here.